Time;durP1;ratioP1;P1;durP2;ratioP2;P2;SDS_P1;SDS_P2;PMS_P1;PMS_P2;Temp;Humidity;BMP_temperature;BMP_pressure;BME280_temperature;BME280_humidity;BME280_pressure;Samples;Min_cycle;Max_cycle;Signal;HPM_P1;HPM_P2
2024/04/16 00:00:15;;;;;;;1.03;0.50;;;;;;;;;;6689012;26;19999;-81
2024/04/16 00:03:15;;;;;;;0.93;0.50;;;;;;;;;;6696676;26;19996;-82
2024/04/16 00:06:16;;;;;;;1.60;0.40;;;;;;;;;;6726533;26;19984;-81
2024/04/16 00:09:16;;;;;;;0.90;0.60;;;;;;;;;;6720250;26;19999;-82
2024/04/16 00:12:16;;;;;;;0.67;0.60;;;;;;;;;;6687242;26;20008;-82
2024/04/16 00:15:17;;;;;;;0.73;0.37;;;;;;;;;;6683384;26;19992;-82
2024/04/16 00:18:17;;;;;;;0.70;0.50;;;;;;;;;;6685009;26;20456;-83
2024/04/16 00:21:17;;;;;;;1.87;0.60;;;;;;;;;;6716551;26;20015;-83
2024/04/16 00:24:17;;;;;;;0.50;0.40;;;;;;;;;;6725407;26;20329;-83
2024/04/16 00:27:18;;;;;;;0.57;0.50;;;;;;;;;;6710066;26;20042;-83
2024/04/16 00:30:18;;;;;;;0.40;0.40;;;;;;;;;;6651556;26;20452;-83
2024/04/16 00:33:18;;;;;;;0.37;0.37;;;;;;;;;;6664924;26;20000;-83
2024/04/16 00:36:18;;;;;;;0.70;0.43;;;;;;;;;;6725574;26;20061;-84
2024/04/16 00:39:19;;;;;;;1.07;0.50;;;;;;;;;;6711843;26;20010;-83
2024/04/16 00:42:19;;;;;;;1.10;0.50;;;;;;;;;;6726824;26;20075;-83
2024/04/16 00:45:19;;;;;;;0.50;0.40;;;;;;;;;;6695124;26;20457;-83
2024/04/16 00:48:23;;;;;;;0.57;0.50;;;;;;;;;;6683867;26;20413;-83
2024/04/16 00:51:23;;;;;;;0.60;0.43;;;;;;;;;;6757474;26;20011;-83
2024/04/16 00:54:24;;;;;;;0.50;0.50;;;;;;;;;;6683448;26;20007;-84
2024/04/16 00:57:24;;;;;;;1.13;0.60;;;;;;;;;;6682142;26;19996;-83
2024/04/16 01:00:24;;;;;;;0.43;0.43;;;;;;;;;;6712739;26;20732;-82
2024/04/16 01:03:25;;;;;;;0.70;0.40;;;;;;;;;;6727154;26;20007;-81
2024/04/16 01:06:25;;;;;;;1.10;0.50;;;;;;;;;;6689141;26;20018;-80
2024/04/16 01:09:25;;;;;;;0.67;0.40;;;;;;;;;;6690931;26;20026;-79
2024/04/16 01:12:25;;;;;;;1.30;0.57;;;;;;;;;;6650941;26;20441;-81
2024/04/16 01:15:26;;;;;;;0.80;0.50;;;;;;;;;;6707610;26;19996;-80
2024/04/16 01:18:26;;;;;;;0.40;0.40;;;;;;;;;;6727310;26;20328;-79
2024/04/16 01:21:26;;;;;;;0.30;0.30;;;;;;;;;;6725194;26;20378;-80
2024/04/16 01:24:26;;;;;;;0.57;0.50;;;;;;;;;;6690605;26;20473;-79
2024/04/16 01:27:27;;;;;;;1.50;0.60;;;;;;;;;;6683068;26;20448;-80
2024/04/16 01:30:27;;;;;;;0.73;0.50;;;;;;;;;;6681641;26;20556;-79
2024/04/16 01:33:27;;;;;;;0.85;0.60;;;;;;;;;;6697029;26;20035;-80
2024/04/16 01:36:28;;;;;;;0.63;0.43;;;;;;;;;;6709583;26;19997;-80
2024/04/16 01:39:28;;;;;;;6.30;0.57;;;;;;;;;;6682679;26;19992;-80
2024/04/16 01:42:28;;;;;;;0.60;0.40;;;;;;;;;;6668898;26;20015;-80
2024/04/16 01:45:28;;;;;;;1.43;0.50;;;;;;;;;;6710592;26;20483;-80
2024/04/16 01:48:30;;;;;;;0.60;0.50;;;;;;;;;;6708473;26;20460;-80
2024/04/16 01:51:31;;;;;;;1.65;0.50;;;;;;;;;;6724473;26;19999;-80
2024/04/16 01:54:32;;;;;;;1.60;0.55;;;;;;;;;;6650851;26;20019;-80
2024/04/16 01:57:33;;;;;;;0.80;0.60;;;;;;;;;;6681879;26;20421;-79
2024/04/16 02:00:33;;;;;;;0.50;0.50;;;;;;;;;;6667739;26;19999;-80
2024/04/16 02:03:34;;;;;;;1.43;0.60;;;;;;;;;;6688858;26;19996;-80
2024/04/16 02:06:34;;;;;;;1.00;0.70;;;;;;;;;;6680663;26;19988;-79
2024/04/16 02:09:34;;;;;;;0.63;0.63;;;;;;;;;;6703002;26;20391;-79
2024/04/16 02:12:35;;;;;;;0.60;0.60;;;;;;;;;;6681015;26;20215;-79
2024/04/16 02:15:35;;;;;;;0.77;0.60;;;;;;;;;;6649880;26;20020;-79
2024/04/16 02:18:35;;;;;;;0.70;0.70;;;;;;;;;;6693833;26;20003;-79
2024/04/16 02:21:35;;;;;;;0.70;0.60;;;;;;;;;;6689786;26;20337;-79
2024/04/16 02:24:36;;;;;;;0.93;0.57;;;;;;;;;;6648619;26;20004;-78
2024/04/16 02:27:36;;;;;;;1.07;0.67;;;;;;;;;;6680212;26;20506;-77
2024/04/16 02:30:37;;;;;;;0.73;0.70;;;;;;;;;;6680695;26;20004;-78
2024/04/16 02:33:38;;;;;;;0.85;0.55;;;;;;;;;;6700905;26;20027;-78
2024/04/16 02:36:38;;;;;;;0.70;0.50;;;;;;;;;;6677283;26;20000;-78
2024/04/16 02:39:38;;;;;;;0.70;0.40;;;;;;;;;;6708727;26;20011;-78
2024/04/16 02:42:38;;;;;;;1.27;0.40;;;;;;;;;;6729030;26;20006;-79
2024/04/16 02:45:39;;;;;;;0.43;0.40;;;;;;;;;;6690566;26;20114;-79
2024/04/16 02:48:39;;;;;;;0.93;0.40;;;;;;;;;;6681287;26;20395;-78
2024/04/16 02:51:39;;;;;;;0.30;0.30;;;;;;;;;;6696961;26;20101;-81
2024/04/16 02:54:40;;;;;;;0.60;0.30;;;;;;;;;;6680769;26;20226;-78
2024/04/16 02:57:40;;;;;;;0.40;0.20;;;;;;;;;;6680519;26;20000;-78
2024/04/16 03:00:40;;;;;;;0.30;0.30;;;;;;;;;;6686546;26;20487;-78
2024/04/16 03:03:40;;;;;;;0.97;0.30;;;;;;;;;;6725015;26;20456;-78
2024/04/16 03:06:41;;;;;;;0.67;0.30;;;;;;;;;;6717956;26;20555;-80
2024/04/16 03:09:41;;;;;;;0.23;0.23;;;;;;;;;;6693385;26;20010;-78
2024/04/16 03:12:42;;;;;;;0.53;0.20;;;;;;;;;;6679654;26;19993;-78
2024/04/16 03:15:42;;;;;;;0.17;0.17;;;;;;;;;;6679855;26;19996;-78
2024/04/16 03:18:44;;;;;;;0.30;0.20;;;;;;;;;;6680205;26;20409;-77
2024/04/16 03:21:45;;;;;;;0.38;0.20;;;;;;;;;;6678156;26;20007;-78
2024/04/16 03:24:45;;;;;;;0.20;0.20;;;;;;;;;;6704406;26;20032;-79
2024/04/16 03:27:45;;;;;;;0.10;0.10;;;;;;;;;;6723302;26;19995;-78
2024/04/16 03:30:45;;;;;;;0.20;0.20;;;;;;;;;;6723611;26;20011;-78
2024/04/16 03:33:46;;;;;;;0.30;0.20;;;;;;;;;;6723885;26;20006;-78
2024/04/16 03:36:46;;;;;;;0.23;0.20;;;;;;;;;;6704919;26;19996;-79
2024/04/16 03:39:46;;;;;;;0.40;0.40;;;;;;;;;;6737464;26;20497;-79
2024/04/16 03:42:46;;;;;;;0.10;0.10;;;;;;;;;;6671204;26;20354;-79
2024/04/16 03:45:56;;;;;;;0.10;0.10;;;;;;;;;;6683186;26;19992;-79
2024/04/16 03:48:57;;;;;;;0.10;0.10;;;;;;;;;;6684221;26;20000;-80
2024/04/16 03:51:57;;;;;;;0.17;0.17;;;;;;;;;;6710042;26;20078;-79
2024/04/16 03:54:57;;;;;;;0.10;0.10;;;;;;;;;;6651923;26;20011;-79
2024/04/16 03:57:58;;;;;;;0.20;0.20;;;;;;;;;;6653230;26;20003;-80
2024/04/16 04:01:03;;;;;;;0.20;0.13;;;;;;;;;;6686419;26;20032;-80
2024/04/16 04:04:03;;;;;;;0.43;0.20;;;;;;;;;;6702521;26;20031;-79
2024/04/16 04:07:03;;;;;;;0.43;0.10;;;;;;;;;;6682564;26;20000;-78
2024/04/16 04:10:04;;;;;;;0.10;0.10;;;;;;;;;;6721488;26;20002;-79
2024/04/16 04:13:04;;;;;;;0.20;0.10;;;;;;;;;;6690017;26;20575;-80
2024/04/16 04:16:04;;;;;;;0.30;0.20;;;;;;;;;;6692894;26;20004;-79
2024/04/16 04:19:04;;;;;;;0.10;0.10;;;;;;;;;;6683222;26;20525;-79
2024/04/16 04:22:05;;;;;;;1.07;0.67;;;;;;;;;;6681953;26;20449;-79
2024/04/16 04:25:05;;;;;;;0.97;0.60;;;;;;;;;;6658208;26;20449;-79
2024/04/16 04:28:05;;;;;;;0.30;0.30;;;;;;;;;;6687746;26;20380;-79
2024/04/16 04:31:16;;;;;;;0.60;0.27;;;;;;;;;;6694553;26;19989;-83
2024/04/16 04:34:16;;;;;;;0.10;0.10;;;;;;;;;;6726634;26;20410;-82
2024/04/16 04:37:16;;;;;;;0.70;0.13;;;;;;;;;;6739238;26;19995;-82
2024/04/16 04:40:16;;;;;;;2.33;0.30;;;;;;;;;;6771710;26;19987;-82
2024/04/16 04:43:17;;;;;;;0.17;0.17;;;;;;;;;;6741997;26;20447;-82
2024/04/16 04:46:18;;;;;;;0.20;0.20;;;;;;;;;;6656511;26;20452;-82
2024/04/16 04:49:18;;;;;;;1.08;0.20;;;;;;;;;;6683625;26;20000;-82
2024/04/16 04:52:18;;;;;;;0.40;0.40;;;;;;;;;;6679795;26;20454;-82
2024/04/16 04:55:19;;;;;;;0.30;0.20;;;;;;;;;;6682962;26;20765;-82
2024/04/16 04:58:19;;;;;;;0.40;0.20;;;;;;;;;;6695037;26;20028;-82
2024/04/16 05:01:19;;;;;;;0.27;0.20;;;;;;;;;;6726678;26;19999;-81
2024/04/16 05:04:19;;;;;;;0.20;0.17;;;;;;;;;;6694845;26;20060;-82
2024/04/16 05:07:20;;;;;;;0.40;0.20;;;;;;;;;;6675998;26;19995;-80
2024/04/16 05:10:20;;;;;;;0.13;0.13;;;;;;;;;;6703526;26;20077;-80
2024/04/16 05:13:20;;;;;;;0.10;0.10;;;;;;;;;;6691187;26;19999;-80
2024/04/16 05:16:20;;;;;;;0.00;0.00;;;;;;;;;;6681781;26;20310;-80
2024/04/16 05:19:21;;;;;;;0.10;0.10;;;;;;;;;;6707110;26;19996;-79
2024/04/16 05:22:21;;;;;;;0.23;0.10;;;;;;;;;;6710953;26;20332;-77
2024/04/16 05:25:21;;;;;;;0.20;0.20;;;;;;;;;;6721880;26;19996;-78
2024/04/16 05:28:22;;;;;;;0.20;0.20;;;;;;;;;;6708242;26;20366;-79
2024/04/16 05:31:22;;;;;;;0.20;0.20;;;;;;;;;;6729374;26;20504;-78
2024/04/16 05:34:22;;;;;;;0.10;0.10;;;;;;;;;;6761943;26;19991;-78
2024/04/16 05:37:22;;;;;;;0.17;0.17;;;;;;;;;;6680689;26;19992;-79
2024/04/16 05:40:23;;;;;;;0.20;0.20;;;;;;;;;;6686307;26;20040;-79
2024/04/16 05:43:23;;;;;;;0.20;0.17;;;;;;;;;;6718672;26;20004;-81
2024/04/16 05:46:23;;;;;;;0.10;0.10;;;;;;;;;;6724745;26;19996;-80
2024/04/16 05:49:24;;;;;;;0.20;0.13;;;;;;;;;;6725750;26;20476;-83
2024/04/16 05:52:24;;;;;;;0.20;0.20;;;;;;;;;;6718494;26;20356;-84
2024/04/16 05:55:24;;;;;;;0.10;0.10;;;;;;;;;;6711897;26;20073;-74
2024/04/16 05:58:25;;;;;;;0.30;0.20;;;;;;;;;;6667164;26;20007;-75
2024/04/16 06:01:25;;;;;;;0.23;0.20;;;;;;;;;;6710311;26;20011;-77
2024/04/16 06:04:25;;;;;;;0.20;0.17;;;;;;;;;;6684946;26;19999;-77
2024/04/16 06:07:25;;;;;;;0.47;0.20;;;;;;;;;;6688073;26;19996;-75
2024/04/16 06:10:26;;;;;;;0.63;0.20;;;;;;;;;;6678352;26;20000;-75
2024/04/16 06:13:26;;;;;;;0.10;0.10;;;;;;;;;;6682468;26;20465;-74
2024/04/16 06:16:26;;;;;;;0.13;0.10;;;;;;;;;;6680044;26;20479;-75
2024/04/16 06:19:26;;;;;;;0.10;0.10;;;;;;;;;;6722792;26;20488;-78
2024/04/16 06:22:27;;;;;;;0.60;0.17;;;;;;;;;;6724000;26;20007;-75
2024/04/16 06:25:27;;;;;;;1.30;0.20;;;;;;;;;;6690926;26;20007;-74
2024/04/16 06:28:27;;;;;;;0.10;0.10;;;;;;;;;;6733083;26;20012;-75
2024/04/16 06:31:27;;;;;;;0.67;0.20;;;;;;;;;;6685375;26;20020;-74
2024/04/16 06:34:28;;;;;;;0.90;0.13;;;;;;;;;;6698361;26;20001;-77
2024/04/16 06:37:28;;;;;;;0.10;0.10;;;;;;;;;;6723580;26;19999;-76
2024/04/16 06:40:28;;;;;;;0.50;0.20;;;;;;;;;;6692019;26;20000;-74
2024/04/16 06:43:28;;;;;;;0.30;0.30;;;;;;;;;;6725002;26;20464;-75
2024/04/16 06:46:29;;;;;;;0.40;0.40;;;;;;;;;;6722730;26;20444;-75
2024/04/16 06:49:29;;;;;;;0.23;0.20;;;;;;;;;;6686422;26;20004;-77
2024/04/16 06:52:30;;;;;;;1.40;0.30;;;;;;;;;;6716807;26;20011;-74
2024/04/16 06:55:30;;;;;;;0.80;0.40;;;;;;;;;;6682576;26;20218;-74
2024/04/16 06:58:30;;;;;;;0.30;0.30;;;;;;;;;;6684472;26;20502;-75
2024/04/16 07:01:31;;;;;;;0.23;0.20;;;;;;;;;;6700345;26;20505;-78
2024/04/16 07:04:31;;;;;;;0.23;0.10;;;;;;;;;;6681916;26;20031;-80
2024/04/16 07:07:32;;;;;;;0.10;0.10;;;;;;;;;;6713093;26;20011;-83
2024/04/16 07:10:33;;;;;;;0.30;0.13;;;;;;;;;;6685512;26;20003;-81
2024/04/16 07:13:33;;;;;;;0.10;0.10;;;;;;;;;;6716991;26;20697;-80
2024/04/16 07:16:33;;;;;;;1.10;0.10;;;;;;;;;;6696944;26;20455;-79
2024/04/16 07:19:33;;;;;;;0.43;0.20;;;;;;;;;;6683327;26;20008;-78
2024/04/16 07:22:34;;;;;;;0.30;0.10;;;;;;;;;;6726859;26;19999;-79
2024/04/16 07:25:34;;;;;;;0.03;0.03;;;;;;;;;;6740023;26;19995;-78
2024/04/16 07:28:34;;;;;;;0.20;0.20;;;;;;;;;;6765539;26;20006;-78
2024/04/16 07:31:34;;;;;;;0.40;0.20;;;;;;;;;;6694350;26;20031;-79
2024/04/16 07:34:35;;;;;;;0.93;0.70;;;;;;;;;;6727105;26;19995;-79
2024/04/16 07:37:35;;;;;;;0.50;0.40;;;;;;;;;;6691456;26;19987;-79
2024/04/16 07:40:35;;;;;;;0.33;0.20;;;;;;;;;;6705057;26;20049;-79
2024/04/16 07:43:36;;;;;;;0.23;0.20;;;;;;;;;;6713909;26;20449;-80
2024/04/16 07:46:36;;;;;;;0.30;0.20;;;;;;;;;;6692425;26;22890;-79
2024/04/16 07:49:36;;;;;;;0.47;0.20;;;;;;;;;;6703522;26;20492;-78
2024/04/16 07:52:36;;;;;;;0.53;0.20;;;;;;;;;;6694872;26;20473;-80
2024/04/16 07:55:37;;;;;;;0.27;0.20;;;;;;;;;;6700633;26;19991;-79
2024/04/16 07:58:37;;;;;;;0.20;0.20;;;;;;;;;;6665203;26;20007;-79
2024/04/16 08:01:37;;;;;;;0.20;0.20;;;;;;;;;;6684172;26;20329;-79
2024/04/16 08:04:38;;;;;;;0.20;0.20;;;;;;;;;;6696093;26;19993;-78
2024/04/16 08:07:38;;;;;;;0.20;0.20;;;;;;;;;;6704174;26;19991;-79
2024/04/16 08:10:38;;;;;;;0.30;0.30;;;;;;;;;;6707491;26;20638;-80
2024/04/16 08:13:39;;;;;;;0.33;0.20;;;;;;;;;;6677773;26;20008;-79
2024/04/16 08:16:39;;;;;;;0.25;0.22;;;;;;;;;;6701986;26;20048;-79
2024/04/16 08:19:39;;;;;;;0.30;0.20;;;;;;;;;;6698991;26;19999;-79
2024/04/16 08:22:40;;;;;;;0.30;0.20;;;;;;;;;;6700258;26;19995;-80
2024/04/16 08:25:40;;;;;;;0.30;0.20;;;;;;;;;;6700080;26;20015;-79
2024/04/16 08:28:40;;;;;;;0.30;0.20;;;;;;;;;;6702503;26;20436;-79
2024/04/16 08:31:40;;;;;;;0.20;0.20;;;;;;;;;;6700581;26;20341;-80
2024/04/16 08:34:41;;;;;;;0.23;0.13;;;;;;;;;;6667044;26;20363;-79
2024/04/16 08:37:41;;;;;;;0.40;0.20;;;;;;;;;;6701098;26;20072;-78
2024/04/16 08:40:41;;;;;;;0.30;0.20;;;;;;;;;;6701129;26;19991;-79
2024/04/16 08:43:42;;;;;;;0.77;0.30;;;;;;;;;;6707979;26;20003;-78
2024/04/16 08:46:43;;;;;;;0.53;0.20;;;;;;;;;;6707677;26;20445;-79
2024/04/16 08:49:44;;;;;;;0.30;0.20;;;;;;;;;;6698096;26;20369;-79
2024/04/16 08:52:45;;;;;;;0.35;0.20;;;;;;;;;;6699531;26;20423;-78
2024/04/16 08:55:45;;;;;;;0.20;0.20;;;;;;;;;;6683335;26;20000;-78
2024/04/16 08:58:45;;;;;;;0.30;0.20;;;;;;;;;;6712074;26;20027;-79
2024/04/16 09:01:49;;;;;;;0.70;0.27;;;;;;;;;;6708500;26;20035;-79
2024/04/16 09:04:50;;;;;;;0.17;0.17;;;;;;;;;;6711250;26;20373;-78
2024/04/16 09:07:51;;;;;;;;;;;;;;;;;;6707092;26;20105;-78
2024/04/16 09:10:52;;;;;;;0.20;0.20;;;;;;;;;;6716301;26;20364;-78
2024/04/16 09:13:52;;;;;;;0.83;0.50;;;;;;;;;;6709249;26;20020;-78
2024/04/16 09:16:52;;;;;;;1.07;0.40;;;;;;;;;;6722936;26;20000;-78
2024/04/16 09:19:59;;;;;;;0.57;0.40;;;;;;;;;;6692245;26;20012;-78
2024/04/16 09:22:59;;;;;;;0.30;0.30;;;;;;;;;;6705556;26;19999;-78
2024/04/16 09:25:59;;;;;;;0.43;0.30;;;;;;;;;;6656129;26;20341;-78
2024/04/16 09:29:00;;;;;;;0.40;0.40;;;;;;;;;;6722203;26;20011;-78
2024/04/16 09:32:01;;;;;;;0.73;0.30;;;;;;;;;;6725985;26;20018;-78
2024/04/16 09:35:02;;;;;;;;;;;;;;;;;;6718362;26;20007;-79
2024/04/16 09:38:03;;;;;;;0.32;0.20;;;;;;;;;;6706921;26;19926;-79
2024/04/16 09:41:03;;;;;;;0.38;0.22;;;;;;;;;;6712945;26;20003;-79
2024/04/16 09:44:04;;;;;;;0.30;0.23;;;;;;;;;;6712446;26;20046;-78
2024/04/16 09:47:05;;;;;;;1.40;0.30;;;;;;;;;;6685430;26;20025;-78
2024/04/16 09:50:07;;;;;;;1.03;0.40;;;;;;;;;;6713283;26;20019;-79
2024/04/16 09:53:07;;;;;;;0.38;0.30;;;;;;;;;;6699812;26;19996;-76
2024/04/16 09:56:08;;;;;;;0.20;0.20;;;;;;;;;;6704552;26;20507;-76
2024/04/16 09:59:10;;;;;;;0.45;0.30;;;;;;;;;;6693288;26;20004;-76
2024/04/16 10:02:11;;;;;;;0.25;0.20;;;;;;;;;;6698359;26;20023;-76
2024/04/16 10:05:15;;;;;;;0.20;0.20;;;;;;;;;;6703314;26;20455;-76
2024/04/16 10:08:15;;;;;;;0.40;0.30;;;;;;;;;;6709212;26;19999;-76
2024/04/16 10:11:17;;;;;;;0.40;0.30;;;;;;;;;;6717420;26;20463;-75
2024/04/16 10:14:19;;;;;;;0.88;0.50;;;;;;;;;;6700783;26;20006;-76
2024/04/16 10:17:20;;;;;;;0.93;0.50;;;;;;;;;;6699043;26;20022;-76
2024/04/16 10:20:23;;;;;;;1.00;0.40;;;;;;;;;;6707733;26;20003;-76
2024/04/16 10:23:23;;;;;;;0.50;0.28;;;;;;;;;;6689329;26;20418;-75
2024/04/16 10:26:24;;;;;;;0.20;0.10;;;;;;;;;;6699627;26;20011;-75
2024/04/16 10:29:25;;;;;;;0.30;0.30;;;;;;;;;;6690186;26;20428;-76
2024/04/16 10:32:28;;;;;;;0.35;0.15;;;;;;;;;;6675050;26;20038;-79
2024/04/16 10:35:31;;;;;;;0.50;0.17;;;;;;;;;;6705248;26;19996;-77
2024/04/16 10:38:37;;;;;;;0.22;0.20;;;;;;;;;;6706203;26;20040;-77
2024/04/16 10:41:37;;;;;;;0.25;0.20;;;;;;;;;;6721771;26;20340;-77
2024/04/16 10:44:38;;;;;;;1.23;0.20;;;;;;;;;;6680687;26;20004;-76
2024/04/16 10:47:38;;;;;;;0.40;0.20;;;;;;;;;;6705748;26;19996;-76
2024/04/16 10:50:38;;;;;;;1.83;0.40;;;;;;;;;;6683852;26;20012;-82
2024/04/16 10:53:40;;;;;;;0.50;0.20;;;;;;;;;;6713366;26;19995;-75
2024/04/16 10:56:41;;;;;;;0.47;0.40;;;;;;;;;;6702347;26;20011;-76
2024/04/16 10:59:41;;;;;;;0.82;0.35;;;;;;;;;;6713187;26;20007;-75
2024/04/16 11:02:42;;;;;;;0.43;0.30;;;;;;;;;;6705124;26;20062;-76
2024/04/16 11:05:42;;;;;;;0.67;0.30;;;;;;;;;;6688336;26;20441;-75
2024/04/16 11:08:42;;;;;;;1.73;0.30;;;;;;;;;;6726929;26;20474;-75
2024/04/16 11:11:43;;;;;;;0.47;0.40;;;;;;;;;;6719785;26;20040;-84
2024/04/16 11:14:43;;;;;;;0.60;0.20;;;;;;;;;;6703210;26;20004;-84
2024/04/16 11:17:44;;;;;;;0.97;0.40;;;;;;;;;;6683908;26;20460;-84
2024/04/16 11:20:45;;;;;;;0.20;0.15;;;;;;;;;;6698780;26;20013;-84
2024/04/16 11:23:45;;;;;;;0.73;0.20;;;;;;;;;;6728626;26;20336;-83
2024/04/16 11:26:46;;;;;;;0.60;0.28;;;;;;;;;;6728234;26;20448;-84
2024/04/16 11:29:46;;;;;;;0.30;0.20;;;;;;;;;;6712959;26;19993;-84
2024/04/16 11:32:47;;;;;;;0.57;0.20;;;;;;;;;;6684358;26;20437;-83
2024/04/16 11:35:47;;;;;;;1.90;0.40;;;;;;;;;;6683397;26;20057;-84
2024/04/16 11:38:48;;;;;;;0.10;0.10;;;;;;;;;;6710855;26;20007;-83
2024/04/16 11:41:49;;;;;;;0.40;0.30;;;;;;;;;;6696539;26;20521;-86
2024/04/16 11:44:51;;;;;;;0.80;0.30;;;;;;;;;;6696531;26;19992;-86
2024/04/16 11:47:51;;;;;;;0.47;0.20;;;;;;;;;;6717874;26;20035;-81
2024/04/16 11:50:51;;;;;;;0.83;0.30;;;;;;;;;;6689425;26;20000;-82
2024/04/16 11:53:51;;;;;;;0.30;0.20;;;;;;;;;;6653989;26;20047;-81
2024/04/16 11:56:51;;;;;;;0.40;0.30;;;;;;;;;;6696610;26;20419;-83
2024/04/16 11:59:56;;;;;;;1.40;0.30;;;;;;;;;;6719795;26;20339;-84
2024/04/16 12:02:56;;;;;;;0.40;0.20;;;;;;;;;;6737842;26;20010;-84
2024/04/16 12:05:56;;;;;;;3.47;1.80;;;;;;;;;;6730901;26;20035;-82
2024/04/16 12:08:56;;;;;;;2.53;1.27;;;;;;;;;;6714587;26;19992;-84
2024/04/16 12:11:57;;;;;;;0.87;0.63;;;;;;;;;;6693544;26;20015;-84
2024/04/16 12:14:57;;;;;;;0.95;0.70;;;;;;;;;;6695891;26;20007;-83
2024/04/16 12:17:57;;;;;;;0.83;0.50;;;;;;;;;;6692274;26;20371;-82
2024/04/16 12:20:58;;;;;;;0.70;0.37;;;;;;;;;;6682429;26;20006;-83
2024/04/16 12:23:58;;;;;;;0.37;0.20;;;;;;;;;;6704836;26;20015;-83
2024/04/16 12:26:58;;;;;;;0.53;0.30;;;;;;;;;;6695964;26;20405;-84
2024/04/16 12:29:59;;;;;;;1.13;0.27;;;;;;;;;;6665739;26;20040;-85
2024/04/16 12:32:59;;;;;;;2.27;0.50;;;;;;;;;;6683815;26;20012;-85
2024/04/16 12:35:59;;;;;;;0.40;0.30;;;;;;;;;;6717823;26;20075;-85
2024/04/16 12:38:59;;;;;;;1.10;0.30;;;;;;;;;;6695509;26;20036;-85
2024/04/16 12:42:00;;;;;;;0.67;0.50;;;;;;;;;;6712996;26;19999;-85
2024/04/16 12:45:01;;;;;;;0.40;0.20;;;;;;;;;;6682550;26;20012;-84
2024/04/16 12:48:01;;;;;;;0.50;0.20;;;;;;;;;;6725945;26;20064;-85
2024/04/16 12:51:01;;;;;;;0.50;0.30;;;;;;;;;;6717964;26;20376;-85
2024/04/16 12:54:01;;;;;;;0.57;0.30;;;;;;;;;;6682745;26;20440;-85
2024/04/16 12:57:01;;;;;;;0.60;0.40;;;;;;;;;;6691169;26;20334;-85
2024/04/16 13:00:03;;;;;;;0.30;0.20;;;;;;;;;;6704906;26;20019;-85
2024/04/16 13:03:03;;;;;;;1.27;0.38;;;;;;;;;;6749851;26;19999;-86
2024/04/16 13:06:03;;;;;;;0.33;0.27;;;;;;;;;;6706425;26;20445;-85
2024/04/16 13:09:04;;;;;;;0.30;0.30;;;;;;;;;;6724518;26;20011;-85
2024/04/16 13:12:04;;;;;;;0.57;0.33;;;;;;;;;;6705388;26;19999;-85
2024/04/16 13:15:05;;;;;;;0.40;0.30;;;;;;;;;;6678752;26;20468;-85
2024/04/16 13:18:08;;;;;;;0.50;0.25;;;;;;;;;;6725380;26;19991;-85
2024/04/16 13:21:10;;;;;;;0.47;0.22;;;;;;;;;;6671860;26;20072;-85
2024/04/16 13:24:10;;;;;;;1.00;0.30;;;;;;;;;;6714458;26;20000;-85
2024/04/16 13:27:10;;;;;;;0.53;0.37;;;;;;;;;;6702914;26;20349;-79
2024/04/16 13:30:11;;;;;;;0.57;0.40;;;;;;;;;;6726281;26;19987;-79
2024/04/16 13:33:11;;;;;;;2.93;2.10;;;;;;;;;;6724063;26;20000;-79
2024/04/16 13:36:11;;;;;;;3.50;1.97;;;;;;;;;;6678652;26;20003;-78
2024/04/16 13:39:12;;;;;;;1.20;1.00;;;;;;;;;;6697468;26;20507;-82
2024/04/16 13:42:12;;;;;;;1.00;0.70;;;;;;;;;;6709067;26;20000;-83
2024/04/16 13:45:12;;;;;;;0.50;0.50;;;;;;;;;;6708911;26;20099;-79
2024/04/16 13:48:13;;;;;;;0.50;0.40;;;;;;;;;;6704641;26;20006;-82
2024/04/16 13:51:14;;;;;;;0.60;0.35;;;;;;;;;;6714014;26;20493;-79
2024/04/16 13:54:15;;;;;;;0.37;0.20;;;;;;;;;;6692188;26;20007;-79
2024/04/16 13:57:15;;;;;;;0.50;0.20;;;;;;;;;;6698358;26;20335;-79
2024/04/16 14:00:16;;;;;;;0.33;0.20;;;;;;;;;;6688580;26;19996;-78
2024/04/16 14:03:16;;;;;;;0.40;0.22;;;;;;;;;;6712279;26;19998;-78
2024/04/16 14:06:16;;;;;;;0.37;0.33;;;;;;;;;;6694064;26;20329;-78
2024/04/16 14:09:17;;;;;;;0.37;0.30;;;;;;;;;;6693209;26;20476;-79
2024/04/16 14:12:17;;;;;;;0.20;0.20;;;;;;;;;;6695689;26;20447;-77
2024/04/16 14:15:17;;;;;;;0.80;0.40;;;;;;;;;;6696696;26;20459;-81
2024/04/16 14:18:18;;;;;;;0.30;0.30;;;;;;;;;;6667696;26;20008;-79
2024/04/16 14:21:18;;;;;;;1.10;0.30;;;;;;;;;;6696354;26;20022;-77
2024/04/16 14:24:21;;;;;;;1.73;0.20;;;;;;;;;;6692146;26;20040;-78
2024/04/16 14:27:21;;;;;;;0.80;0.47;;;;;;;;;;6692909;26;20007;-79
2024/04/16 14:30:21;;;;;;;1.07;0.40;;;;;;;;;;6699376;26;20027;-79
2024/04/16 14:33:22;;;;;;;0.73;0.30;;;;;;;;;;6697792;26;19995;-79
2024/04/16 14:36:23;;;;;;;0.30;0.20;;;;;;;;;;6697779;26;20000;-79
2024/04/16 14:39:23;;;;;;;0.50;0.22;;;;;;;;;;6693815;26;20007;-79
2024/04/16 14:42:25;;;;;;;0.73;0.47;;;;;;;;;;6693692;26;20480;-79
2024/04/16 14:45:25;;;;;;;0.40;0.40;;;;;;;;;;6695366;26;20015;-78
2024/04/16 14:48:25;;;;;;;0.30;0.30;;;;;;;;;;6700646;26;19992;-79
2024/04/16 14:51:25;;;;;;;0.20;0.20;;;;;;;;;;6696674;26;20356;-79
2024/04/16 14:54:26;;;;;;;0.40;0.30;;;;;;;;;;6699329;26;20016;-78
2024/04/16 14:57:26;;;;;;;0.30;0.30;;;;;;;;;;6699637;26;20000;-77
2024/04/16 15:00:27;;;;;;;0.77;0.30;;;;;;;;;;6695820;26;20024;-76
2024/04/16 15:03:27;;;;;;;0.70;0.30;;;;;;;;;;6697685;26;20067;-76
2024/04/16 15:06:27;;;;;;;0.30;0.27;;;;;;;;;;6700150;26;20451;-76
2024/04/16 15:09:28;;;;;;;2.63;1.53;;;;;;;;;;6699437;26;20400;-76
2024/04/16 15:12:28;;;;;;;1.47;1.30;;;;;;;;;;6696294;26;20402;-76
2024/04/16 15:15:28;;;;;;;0.90;0.80;;;;;;;;;;6698280;26;20018;-77
2024/04/16 15:18:28;;;;;;;0.87;0.57;;;;;;;;;;6698454;26;19996;-76
2024/04/16 15:21:28;;;;;;;2.80;0.60;;;;;;;;;;6691194;26;20024;-77
2024/04/16 15:24:29;;;;;;;0.80;0.50;;;;;;;;;;6695768;26;20465;-79
2024/04/16 15:27:29;;;;;;;0.30;0.30;;;;;;;;;;6697103;26;19996;-80
2024/04/16 15:30:29;;;;;;;0.40;0.23;;;;;;;;;;6693766;26;20004;-79
2024/04/16 15:33:29;;;;;;;1.37;0.40;;;;;;;;;;6704088;26;20081;-79
2024/04/16 15:36:30;;;;;;;0.50;0.37;;;;;;;;;;6664492;26;20004;-76
2024/04/16 15:39:31;;;;;;;0.80;0.50;;;;;;;;;;6686560;26;20631;-79
2024/04/16 15:42:31;;;;;;;0.30;0.17;;;;;;;;;;6701875;26;20011;-80
2024/04/16 15:45:32;;;;;;;0.57;0.40;;;;;;;;;;6706337;26;20024;-79
2024/04/16 15:48:32;;;;;;;0.50;0.20;;;;;;;;;;6698888;26;20007;-78
2024/04/16 15:51:32;;;;;;;0.40;0.30;;;;;;;;;;6700551;26;20036;-78
2024/04/16 15:54:32;;;;;;;0.83;0.30;;;;;;;;;;6701769;26;20500;-79
2024/04/16 15:57:33;;;;;;;0.30;0.30;;;;;;;;;;6725111;26;20021;-78
2024/04/16 16:00:37;;;;;;;0.50;0.20;;;;;;;;;;6715417;26;20071;-78
2024/04/16 16:03:37;;;;;;;0.60;0.40;;;;;;;;;;6683988;26;20005;-78
2024/04/16 16:06:37;;;;;;;0.30;0.30;;;;;;;;;;6690658;26;20033;-78
2024/04/16 16:09:38;;;;;;;0.53;0.40;;;;;;;;;;6703519;26;20497;-78
2024/04/16 16:12:38;;;;;;;0.40;0.30;;;;;;;;;;6695000;26;20518;-78
2024/04/16 16:15:38;;;;;;;0.40;0.30;;;;;;;;;;6708202;26;20445;-78
2024/04/16 16:18:39;;;;;;;1.40;1.13;;;;;;;;;;6717182;26;20222;-78
2024/04/16 16:21:39;;;;;;;1.17;0.70;;;;;;;;;;6701451;26;20582;-78
2024/04/16 16:24:39;;;;;;;0.60;0.50;;;;;;;;;;6722478;26;20356;-78
2024/04/16 16:27:40;;;;;;;0.90;0.70;;;;;;;;;;6723930;26;20516;-77
2024/04/16 16:30:40;;;;;;;0.40;0.40;;;;;;;;;;6719091;26;20499;-78
2024/04/16 16:33:40;;;;;;;0.50;0.37;;;;;;;;;;6703859;26;19999;-78
2024/04/16 16:36:40;;;;;;;1.47;1.00;;;;;;;;;;6717563;26;19995;-78
2024/04/16 16:39:41;;;;;;;1.10;0.90;;;;;;;;;;6727608;26;20452;-77
2024/04/16 16:42:41;;;;;;;0.90;0.60;;;;;;;;;;6748870;26;20460;-78
2024/04/16 16:45:41;;;;;;;1.90;0.53;;;;;;;;;;6721248;26;20446;-78
2024/04/16 16:48:41;;;;;;;0.37;0.20;;;;;;;;;;6721545;26;20004;-79
2024/04/16 16:51:42;;;;;;;1.43;0.37;;;;;;;;;;6701932;26;20503;-78
2024/04/16 16:54:42;;;;;;;0.77;0.40;;;;;;;;;;6692664;26;20500;-77
2024/04/16 16:57:42;;;;;;;0.43;0.40;;;;;;;;;;6698048;26;20347;-77
2024/04/16 17:00:43;;;;;;;0.47;0.33;;;;;;;;;;6698380;26;19997;-77
2024/04/16 17:03:43;;;;;;;0.97;0.40;;;;;;;;;;6684578;26;20484;-77
2024/04/16 17:06:44;;;;;;;0.57;0.40;;;;;;;;;;6680875;26;20429;-78
2024/04/16 17:09:44;;;;;;;0.70;0.40;;;;;;;;;;6682934;26;20512;-79
2024/04/16 17:12:44;;;;;;;0.60;0.40;;;;;;;;;;6684184;26;20448;-79
2024/04/16 17:15:44;;;;;;;0.37;0.30;;;;;;;;;;6718892;26;20448;-80
2024/04/16 17:18:45;;;;;;;0.60;0.50;;;;;;;;;;6712074;26;22166;-78
2024/04/16 17:21:45;;;;;;;0.67;0.40;;;;;;;;;;6710892;26;20044;-78
2024/04/16 17:24:45;;;;;;;0.47;0.30;;;;;;;;;;6720396;26;20007;-78
2024/04/16 17:27:45;;;;;;;0.70;0.40;;;;;;;;;;6711076;26;20008;-78
2024/04/16 17:30:47;;;;;;;0.20;0.20;;;;;;;;;;6718667;26;20090;-78
2024/04/16 17:33:48;;;;;;;0.47;0.32;;;;;;;;;;6680362;26;19996;-79
2024/04/16 17:36:48;;;;;;;0.87;0.40;;;;;;;;;;6713183;26;20099;-77
2024/04/16 17:39:48;;;;;;;2.47;1.47;;;;;;;;;;6723889;26;20457;-78
2024/04/16 17:42:49;;;;;;;1.30;1.20;;;;;;;;;;6748976;26;20500;-77
2024/04/16 17:45:49;;;;;;;1.55;0.70;;;;;;;;;;6705527;26;20477;-78
2024/04/16 17:48:49;;;;;;;2.53;0.63;;;;;;;;;;6697651;26;20015;-78
2024/04/16 17:51:52;;;;;;;0.57;0.43;;;;;;;;;;6691010;26;20015;-78
2024/04/16 17:54:52;;;;;;;1.02;0.50;;;;;;;;;;6704108;26;20000;-78
2024/04/16 17:57:52;;;;;;;1.30;0.60;;;;;;;;;;6660477;26;19992;-78
2024/04/16 18:00:58;;;;;;;0.60;0.40;;;;;;;;;;6650002;26;20019;-78